Time;durP1;ratioP1;P1;durP2;ratioP2;P2;SDS_P1;SDS_P2;PMS_P1;PMS_P2;Temp;Humidity;BMP_temperature;BMP_pressure;BME280_temperature;BME280_humidity;BME280_pressure;Samples;Min_cycle;Max_cycle;Signal;HPM_P1;HPM_P2
2022/07/24 03:12:40;;;;;;;16.73;15.23;;;20.10;99.90;;;;;;5097819;28;20494;-85
2022/07/24 03:15:07;;;;;;;16.70;15.20;;;20.10;99.90;;;;;;5122211;28;20466;-85
2022/07/24 03:17:34;;;;;;;15.07;13.97;;;20.00;99.90;;;;;;5122047;28;20786;-85
2022/07/24 03:20:02;;;;;;;15.87;14.50;;;20.00;99.90;;;;;;5122280;28;20563;-85
2022/07/24 03:22:28;;;;;;;16.07;14.57;;;20.00;99.90;;;;;;5121830;28;20936;-85
2022/07/24 03:24:55;;;;;;;16.70;15.30;;;19.90;99.90;;;;;;5121533;28;20477;-85
2022/07/24 03:27:22;;;;;;;17.77;16.07;;;19.90;99.90;;;;;;5121280;28;20456;-84
2022/07/24 03:29:50;;;;;;;15.63;14.33;;;19.90;99.90;;;;;;5122337;28;20455;-85
2022/07/24 03:32:17;;;;;;;17.17;15.67;;;19.90;99.90;;;;;;5116345;28;20963;-85
2022/07/24 03:34:44;;;;;;;17.03;15.63;;;19.80;99.90;;;;;;5111095;28;20443;-83
2022/07/24 03:37:10;;;;;;;17.27;15.93;;;19.80;99.90;;;;;;5111569;28;20449;-85
2022/07/24 03:39:37;;;;;;;15.37;14.10;;;19.70;99.90;;;;;;5103372;28;20459;-85
2022/07/24 03:42:04;;;;;;;15.77;14.33;;;19.70;99.90;;;;;;5111749;28;20450;-84
2022/07/24 03:44:31;;;;;;;14.97;13.77;;;19.70;99.90;;;;;;5100989;28;20916;-85
2022/07/24 03:46:59;;;;;;;17.07;15.60;;;19.60;99.90;;;;;;5100996;28;20451;-85
2022/07/24 03:49:25;;;;;;;17.33;15.60;;;19.60;99.90;;;;;;5101467;28;20448;-85
2022/07/24 03:51:52;;;;;;;14.80;13.40;;;19.60;99.90;;;;;;5100569;28;20970;-84
2022/07/24 03:54:19;;;;;;;14.57;13.20;;;19.60;99.90;;;;;;5101640;28;20435;-85
2022/07/24 03:56:46;;;;;;;16.83;15.33;;;19.60;99.90;;;;;;5100328;28;20472;-84
2022/07/24 03:59:12;;;;;;;13.70;12.60;;;19.60;99.90;;;;;;5118505;28;20447;-83
2022/07/24 04:01:39;;;;;;;15.33;13.93;;;19.70;99.90;;;;;;5120460;28;20442;-85
2022/07/24 04:04:07;;;;;;;16.40;14.80;;;19.60;99.90;;;;;;5121125;28;21026;-85
2022/07/24 04:06:35;;;;;;;15.20;13.67;;;19.60;99.90;;;;;;5121067;28;20459;-85
2022/07/24 04:09:03;;;;;;;14.63;13.43;;;19.60;99.90;;;;;;5121462;28;20446;-84
2022/07/24 04:11:30;;;;;;;14.33;13.00;;;19.50;99.90;;;;;;5120765;28;20504;-85
2022/07/24 04:13:56;;;;;;;13.73;12.73;;;19.60;99.90;;;;;;5120426;28;21113;-84
2022/07/24 04:16:23;;;;;;;15.73;14.37;;;19.60;99.90;;;;;;5120754;28;20472;-85
2022/07/24 04:18:50;;;;;;;14.50;13.40;;;19.60;99.90;;;;;;5121095;28;20457;-85
2022/07/24 04:21:18;;;;;;;14.43;13.23;;;19.60;99.90;;;;;;5121396;28;20533;-85
2022/07/24 04:23:45;;;;;;;13.97;12.73;;;19.70;99.90;;;;;;5120436;28;20487;-85
2022/07/24 04:26:12;;;;;;;13.20;12.20;;;19.70;99.90;;;;;;5120876;28;20479;-85
2022/07/24 04:28:41;;;;;;;13.27;12.27;;;19.70;99.90;;;;;;5120454;28;20757;-85
2022/07/24 04:31:08;;;;;;;13.40;12.30;;;19.70;99.90;;;;;;5120528;28;20454;-85
2022/07/24 04:33:35;;;;;;;13.90;12.60;;;19.80;99.90;;;;;;5120474;28;20451;-84
2022/07/24 04:36:03;;;;;;;15.60;14.20;;;19.80;99.90;;;;;;5099800;28;20475;-85
2022/07/24 04:38:32;;;;;;;15.33;14.03;;;19.80;99.90;;;;;;5100387;28;20528;-84
2022/07/24 04:40:59;;;;;;;14.00;12.80;;;19.80;99.90;;;;;;5116332;28;20458;-85
2022/07/24 04:43:26;;;;;;;15.90;14.50;;;19.80;99.90;;;;;;5109705;28;20503;-84
2022/07/24 04:45:52;;;;;;;14.80;13.50;;;19.80;99.90;;;;;;5103393;28;20469;-85
2022/07/24 04:48:19;;;;;;;16.97;15.40;;;19.80;99.90;;;;;;5120292;28;20530;-85
2022/07/24 04:50:46;;;;;;;14.50;13.30;;;19.80;99.90;;;;;;5108932;28;20454;-84
2022/07/24 04:53:13;;;;;;;14.37;13.13;;;19.90;99.90;;;;;;5106225;28;20447;-85
2022/07/24 04:55:41;;;;;;;15.77;14.37;;;19.90;99.90;;;;;;5115844;28;20455;-85
2022/07/24 04:58:08;;;;;;;15.40;14.20;;;20.00;99.90;;;;;;5108874;28;20884;-85
2022/07/24 05:00:35;;;;;;;15.47;14.13;;;20.00;99.90;;;;;;5120614;28;20956;-85
2022/07/24 05:03:02;;;;;;;17.40;15.80;;;20.10;99.90;;;;;;5106926;28;20444;-85
2022/07/24 05:05:28;;;;;;;16.10;14.63;;;20.10;99.90;;;;;;5098884;28;20520;-84
2022/07/24 05:07:55;;;;;;;15.47;14.27;;;20.10;99.90;;;;;;5099517;28;20458;-85
2022/07/24 05:10:22;;;;;;;16.50;15.00;;;20.20;99.90;;;;;;5099660;28;20452;-85
2022/07/24 05:12:50;;;;;;;16.47;14.97;;;20.20;99.90;;;;;;5099327;28;20446;-85
2022/07/24 05:15:17;;;;;;;15.23;13.87;;;20.30;99.90;;;;;;5113687;28;20466;-85
2022/07/24 05:17:43;;;;;;;15.10;13.80;;;20.30;99.90;;;;;;5119590;28;20444;-85
2022/07/24 05:20:11;;;;;;;16.57;15.10;;;20.40;99.90;;;;;;5119840;28;20455;-85
2022/07/24 05:22:37;;;;;;;15.73;14.10;;;20.40;99.90;;;;;;5119472;28;20452;-85
2022/07/24 05:25:05;;;;;;;15.43;14.10;;;20.40;99.90;;;;;;5119646;28;20515;-84
2022/07/24 05:27:32;;;;;;;15.97;14.47;;;20.50;99.90;;;;;;5119779;28;20472;-85
2022/07/24 05:30:00;;;;;;;14.77;13.50;;;20.50;99.90;;;;;;5119920;28;20446;-84
2022/07/24 05:32:27;;;;;;;15.73;14.43;;;20.60;99.90;;;;;;5119736;28;20449;-85
2022/07/24 05:34:54;;;;;;;16.93;15.43;;;20.60;99.90;;;;;;5119426;28;20459;-85
2022/07/24 05:37:20;;;;;;;16.33;14.80;;;20.60;99.90;;;;;;5118764;28;20446;-84
2022/07/24 05:39:47;;;;;;;15.47;14.07;;;20.70;99.90;;;;;;5119169;28;20452;-85
2022/07/24 05:42:14;;;;;;;14.77;13.57;;;20.80;99.90;;;;;;5119330;28;20459;-85
2022/07/24 05:44:41;;;;;;;15.23;13.87;;;20.90;99.90;;;;;;5119272;28;20489;-85
2022/07/24 05:47:09;;;;;;;15.27;14.13;;;21.00;99.90;;;;;;5123743;28;20823;-84
2022/07/24 05:49:35;;;;;;;14.50;13.13;;;20.90;99.90;;;;;;5124125;28;20441;-83
2022/07/24 05:52:02;;;;;;;16.30;14.90;;;21.10;99.90;;;;;;5123426;28;20448;-84
2022/07/24 05:54:29;;;;;;;16.57;13.50;;;21.10;99.90;;;;;;5123944;28;20494;-84
2022/07/24 05:56:56;;;;;;;16.37;14.97;;;21.20;99.90;;;;;;5112660;28;20458;-83
2022/07/24 05:59:23;;;;;;;15.20;13.90;;;21.30;99.90;;;;;;5103627;28;20447;-83
2022/07/24 06:01:49;;;;;;;14.40;13.17;;;21.40;99.90;;;;;;5106376;28;20463;-83
2022/07/24 06:04:17;;;;;;;15.13;13.83;;;21.40;99.90;;;;;;5110733;28;20586;-83
2022/07/24 06:06:44;;;;;;;16.33;14.80;;;21.50;99.90;;;;;;5106503;28;20466;-84
2022/07/24 06:09:11;;;;;;;14.43;13.37;;;21.60;99.90;;;;;;5103665;28;20444;-84
2022/07/24 06:11:37;;;;;;;14.90;13.77;;;21.70;99.90;;;;;;5104901;28;20462;-82
2022/07/24 06:14:04;;;;;;;14.50;13.10;;;21.70;99.90;;;;;;5111244;28;20446;-83
2022/07/24 06:16:31;;;;;;;12.00;11.00;;;21.90;99.90;;;;;;5110993;28;20545;-83
2022/07/24 06:18:58;;;;;;;12.87;11.67;;;21.90;99.90;;;;;;5105527;28;20452;-83
2022/07/24 06:21:26;;;;;;;14.40;13.30;;;22.00;99.90;;;;;;5105722;28;20448;-82
2022/07/24 06:23:53;;;;;;;14.47;13.27;;;22.00;99.90;;;;;;5112960;28;20459;-83
2022/07/24 06:26:20;;;;;;;12.90;11.73;;;22.20;99.90;;;;;;5116902;28;20481;-83
2022/07/24 06:28:46;;;;;;;12.90;11.80;;;22.20;99.90;;;;;;5107378;28;20450;-84
2022/07/24 06:31:13;;;;;;;13.37;12.27;;;22.30;99.90;;;;;;5106218;28;20453;-84
2022/07/24 06:33:40;;;;;;;11.90;11.00;;;22.40;99.90;;;;;;5107440;28;20454;-84
2022/07/24 06:36:07;;;;;;;12.97;11.87;;;22.40;99.90;;;;;;5106073;28;20462;-83
2022/07/24 06:38:36;;;;;;;12.73;11.73;;;22.50;99.90;;;;;;5106223;28;20450;-83
2022/07/24 06:41:03;;;;;;;13.03;12.03;;;22.60;99.90;;;;;;5106419;28;20450;-83
2022/07/24 06:43:30;;;;;;;13.70;12.60;;;22.70;99.90;;;;;;5106010;28;20442;-84
2022/07/24 06:45:57;;;;;;;12.07;11.17;;;22.80;99.90;;;;;;5106460;28;20486;-84
2022/07/24 06:48:23;;;;;;;12.63;11.53;;;22.90;99.90;;;;;;5107612;28;20533;-84
2022/07/24 06:50:50;;;;;;;13.23;12.27;;;22.90;99.90;;;;;;5106061;28;20454;-84
2022/07/24 06:53:17;;;;;;;13.60;12.40;;;23.00;99.90;;;;;;5104797;28;20460;-83
2022/07/24 06:55:46;;;;;;;12.10;11.10;;;23.10;99.90;;;;;;5105173;28;20458;-85
2022/07/24 06:58:13;;;;;;;13.57;12.53;;;23.20;99.90;;;;;;5105271;28;20446;-84
2022/07/24 07:00:40;;;;;;;13.77;12.00;;;23.30;99.90;;;;;;5105543;28;20442;-84
2022/07/24 07:03:07;;;;;;;13.67;12.53;;;23.40;99.90;;;;;;5105661;28;20439;-84
2022/07/24 07:05:34;;;;;;;14.13;12.87;;;23.50;99.90;;;;;;5105566;28;20486;-84
2022/07/24 07:08:00;;;;;;;14.17;13.00;;;23.50;99.90;;;;;;5106192;28;20820;-84
2022/07/24 07:10:27;;;;;;;13.17;12.17;;;23.60;99.90;;;;;;5105141;28;20454;-83
2022/07/24 07:12:55;;;;;;;12.70;11.50;;;23.70;99.90;;;;;;5104385;28;20450;-86
2022/07/24 07:15:23;;;;;;;13.73;12.63;;;23.80;99.90;;;;;;5107419;28;20465;-84
2022/07/24 07:17:49;;;;;;;12.40;11.47;;;23.80;99.90;;;;;;5114752;28;20452;-84
2022/07/24 07:20:16;;;;;;;13.40;12.40;;;23.90;99.90;;;;;;5118972;28;20451;-84
2022/07/24 07:22:43;;;;;;;11.77;10.87;;;24.00;99.90;;;;;;5104707;28;20953;-83
2022/07/24 07:25:11;;;;;;;12.17;11.27;;;24.00;99.90;;;;;;5104684;28;20491;-84
2022/07/24 07:27:39;;;;;;;12.53;11.43;;;24.10;99.90;;;;;;5124852;28;20451;-84
2022/07/24 07:30:09;;;;;;;12.27;11.30;;;24.10;99.90;;;;;;5123029;28;20476;-84
2022/07/24 07:32:36;;;;;;;12.30;11.13;;;24.20;99.90;;;;;;5124668;28;20882;-84
2022/07/24 07:35:03;;;;;;;11.57;10.47;;;24.30;99.90;;;;;;5124579;28;20466;-84
2022/07/24 07:37:30;;;;;;;17.27;11.30;;;24.40;99.90;;;;;;5124440;28;20454;-84
2022/07/24 07:39:57;;;;;;;11.83;10.90;;;24.50;99.90;;;;;;5123651;28;20451;-84
2022/07/24 07:42:24;;;;;;;12.00;10.80;;;24.50;99.90;;;;;;5104821;28;20451;-84
2022/07/24 07:44:51;;;;;;;11.67;10.77;;;24.60;99.90;;;;;;5105289;28;20483;-84
2022/07/24 07:47:19;;;;;;;11.00;10.10;;;24.60;99.90;;;;;;5124921;28;20443;-84
2022/07/24 07:49:45;;;;;;;13.03;12.03;;;24.70;99.90;;;;;;5125494;28;20448;-84
2022/07/24 07:52:12;;;;;;;11.90;10.93;;;24.80;99.90;;;;;;5104381;28;20447;-84
2022/07/24 07:54:39;;;;;;;10.27;9.50;;;24.90;99.90;;;;;;5123045;28;20825;-84
2022/07/24 07:57:06;;;;;;;12.90;11.80;;;24.90;99.90;;;;;;5122485;28;20824;-84
2022/07/24 07:59:32;;;;;;;10.40;9.60;;;25.00;99.80;;;;;;5106337;28;20843;-83
2022/07/24 08:01:59;;;;;;;9.97;9.20;;;25.10;98.40;;;;;;5101310;28;20458;-82
2022/07/24 08:04:27;;;;;;;11.03;9.93;;;25.20;97.90;;;;;;5103223;28;20450;-83
2022/07/24 08:06:54;;;;;;;10.77;9.87;;;25.30;99.30;;;;;;5102160;28;20434;-83
2022/07/24 08:09:21;;;;;;;12.27;11.20;;;25.40;99.00;;;;;;5101495;28;20456;-83
2022/07/24 08:11:48;;;;;;;11.93;10.80;;;25.50;98.20;;;;;;5099613;28;20466;-83
2022/07/24 08:14:15;;;;;;;9.73;9.03;;;25.50;96.80;;;;;;5101752;28;20453;-83
2022/07/24 08:16:41;;;;;;;11.10;10.30;;;25.60;96.70;;;;;;5104049;28;20473;-84
2022/07/24 08:19:08;;;;;;;9.80;9.10;;;25.70;96.80;;;;;;5102975;28;20555;-83
2022/07/24 08:21:36;;;;;;;10.27;9.40;;;25.80;96.70;;;;;;5103023;28;20451;-84
2022/07/24 08:24:04;;;;;;;10.30;9.60;;;26.00;97.00;;;;;;5108504;28;20462;-84
2022/07/24 08:26:31;;;;;;;10.10;9.30;;;26.00;96.60;;;;;;5104738;28;20492;-85
2022/07/24 08:28:58;;;;;;;9.50;8.90;;;26.10;96.00;;;;;;5118603;28;20463;-85
2022/07/24 08:31:25;;;;;;;11.97;11.10;;;26.20;95.40;;;;;;5119330;28;20447;-84
2022/07/24 08:33:52;;;;;;;9.83;9.00;;;26.30;94.60;;;;;;5103944;28;20458;-83
2022/07/24 08:36:18;;;;;;;10.00;9.23;;;26.20;93.50;;;;;;5104699;28;20982;-83
2022/07/24 08:38:47;;;;;;;10.17;9.47;;;26.30;93.80;;;;;;5110278;28;20457;-84
2022/07/24 08:41:14;;;;;;;10.13;9.37;;;26.30;93.20;;;;;;5104818;28;20453;-83
2022/07/24 08:43:40;;;;;;;10.50;9.70;;;26.50;93.40;;;;;;5124457;28;20458;-85
2022/07/24 08:46:10;;;;;;;11.40;10.37;;;26.60;93.40;;;;;;5120834;28;20486;-83
2022/07/24 08:48:42;;;;;;;10.37;9.63;;;26.70;93.60;;;;;;5122397;28;20434;-85
2022/07/24 08:51:09;;;;;;;9.67;9.07;;;26.70;93.20;;;;;;5120057;28;20446;-84
2022/07/24 08:53:36;;;;;;;10.17;9.40;;;26.80;92.40;;;;;;5100718;28;20562;-82
2022/07/24 08:56:05;;;;;;;9.20;8.50;;;26.90;92.10;;;;;;5098038;28;20483;-84
2022/07/24 08:58:35;;;;;;;9.90;9.07;;;26.90;91.40;;;;;;5118678;28;20454;-84
2022/07/24 09:01:02;;;;;;;9.60;8.80;;;27.10;91.00;;;;;;5123743;28;20446;-84
2022/07/24 09:03:29;;;;;;;8.90;8.27;;;27.20;91.50;;;;;;5114568;28;20877;-85
2022/07/24 09:05:57;;;;;;;9.03;8.47;;;27.30;91.10;;;;;;5113734;28;20484;-88
2022/07/24 09:08:24;;;;;;;10.00;9.30;;;27.50;89.10;;;;;;5113950;28;20460;-84
2022/07/24 09:11:06;;;;;;;10.20;9.50;;;27.70;90.00;;;;;;5115448;28;20812;-88
2022/07/24 09:16:22;;;;;;;9.53;8.83;;;27.90;87.90;;;;;;5114335;28;20456;-85
2022/07/24 09:18:49;;;;;;;9.30;8.60;;;28.10;90.80;;;;;;5115089;28;20850;-84
2022/07/24 09:21:18;;;;;;;9.20;8.53;;;28.30;86.80;;;;;;5117536;28;20560;-83
2022/07/24 09:23:45;;;;;;;9.10;8.40;;;28.40;87.30;;;;;;5117300;28;20971;-83
2022/07/24 09:26:14;;;;;;;10.20;9.60;;;28.60;83.60;;;;;;5098751;28;20479;-84
2022/07/24 09:28:49;;;;;;;8.57;7.97;;;28.80;82.10;;;;;;5114203;28;20453;-85
2022/07/24 09:31:15;;;;;;;9.63;8.83;;;28.90;81.40;;;;;;5116880;28;20445;-84
2022/07/24 09:33:42;;;;;;;9.17;8.40;;;28.90;80.10;;;;;;5116539;28;20448;-83
2022/07/24 09:36:13;;;;;;;9.47;8.77;;;28.90;80.10;;;;;;5116018;28;20829;-84
2022/07/24 09:38:47;;;;;;;8.90;8.20;;;28.50;79.80;;;;;;5114992;28;20464;-84
2022/07/24 09:41:20;;;;;;;8.93;8.33;;;28.50;78.50;;;;;;5116448;28;20530;-82
2022/07/24 09:43:58;;;;;;;8.23;7.53;;;28.60;78.10;;;;;;5099640;28;20451;-82
2022/07/24 09:46:26;;;;;;;10.77;9.87;;;28.80;77.40;;;;;;5094897;28;20573;-82
2022/07/24 09:48:56;;;;;;;8.60;8.07;;;29.10;75.60;;;;;;5095598;28;20447;-82
2022/07/24 09:51:24;;;;;;;9.23;8.43;;;29.40;76.30;;;;;;5096151;28;20495;-81
2022/07/24 09:53:55;;;;;;;9.60;8.97;;;29.60;76.60;;;;;;5099037;28;20451;-80
2022/07/24 09:56:24;;;;;;;8.73;8.03;;;30.00;75.70;;;;;;5097392;28;20467;-81
2022/07/24 09:58:53;;;;;;;9.10;8.40;;;30.50;75.80;;;;;;5114135;28;20446;-80
2022/07/24 10:01:22;;;;;;;9.37;8.60;;;30.80;72.00;;;;;;5118676;28;20451;-82
2022/07/24 10:03:51;;;;;;;9.47;8.87;;;31.10;71.20;;;;;;5101927;28;20460;-82
2022/07/24 10:06:21;;;;;;;8.50;7.90;;;31.40;71.90;;;;;;5098748;28;20493;-82
2022/07/24 10:08:49;;;;;;;9.93;9.23;;;31.70;70.10;;;;;;5099179;28;20479;-82
2022/07/24 10:11:18;;;;;;;8.50;7.83;;;32.10;68.90;;;;;;5098525;28;20464;-82
2022/07/24 10:13:47;;;;;;;9.57;8.97;;;32.40;67.80;;;;;;5100130;28;20450;-82
2022/07/24 10:16:31;;;;;;;9.50;8.90;;;32.70;65.10;;;;;;5104373;28;20462;-81
2022/07/24 10:19:00;;;;;;;9.93;9.03;;;32.80;60.70;;;;;;5114367;28;20457;-81
2022/07/24 10:21:28;;;;;;;10.03;9.23;;;32.80;60.90;;;;;;5119670;28;20531;-82
2022/07/24 10:24:21;;;;;;;8.80;8.20;;;32.60;58.70;;;;;;5115868;28;20442;-81
2022/07/24 10:26:49;;;;;;;9.80;9.00;;;32.30;60.70;;;;;;5067931;28;20496;-81
2022/07/24 10:29:19;;;;;;;8.90;8.30;;;31.90;60.50;;;;;;5106473;28;20474;-81
2022/07/24 10:31:47;;;;;;;9.80;9.10;;;31.40;60.60;;;;;;5102019;28;20457;-81
2022/07/24 10:34:22;;;;;;;9.10;8.53;;;30.80;62.20;;;;;;5099522;28;20449;-81
2022/07/24 10:36:53;;;;;;;9.47;8.77;;;30.70;63.90;;;;;;5119844;28;20462;-79
2022/07/24 10:39:31;;;;;;;9.97;9.33;;;30.30;64.30;;;;;;5122377;28;20549;-81
2022/07/24 10:42:02;;;;;;;9.53;8.83;;;30.10;65.80;;;;;;5102810;28;20536;-82
2022/07/24 10:44:30;;;;;;;10.30;9.37;;;30.10;65.80;;;;;;5118711;28;20445;-82
2022/07/24 10:47:01;;;;;;;9.77;8.97;;;30.20;64.20;;;;;;5106216;28;20480;-82
2022/07/24 10:49:35;;;;;;;10.57;9.80;;;30.20;66.50;;;;;;5098404;28;20449;-81
2022/07/24 10:52:02;;;;;;;10.07;8.73;;;30.10;65.60;;;;;;5110578;28;20456;-81
2022/07/24 10:54:29;;;;;;;9.73;9.00;;;29.90;65.10;;;;;;5117928;28;20461;-81
2022/07/24 10:56:56;;;;;;;9.23;8.53;;;29.90;64.20;;;;;;5106789;28;20460;-81
2022/07/24 10:59:35;;;;;;;9.90;9.20;;;30.10;66.00;;;;;;5097593;28;20461;-81
2022/07/24 11:02:26;;;;;;;8.53;8.00;;;30.40;64.90;;;;;;5109133;28;20451;-81
2022/07/24 11:05:26;;;;;;;8.67;8.07;;;30.50;64.40;;;;;;5118057;28;20466;-80
2022/07/24 11:08:31;;;;;;;9.33;8.73;;;30.80;64.80;;;;;;5099448;28;20451;-80
2022/07/24 11:11:01;;;;;;;9.53;8.90;;;30.80;64.20;;;;;;5101263;28;20471;-80
2022/07/24 11:13:45;;;;;;;9.07;8.47;;;31.30;61.70;;;;;;5104136;28;20946;-80
2022/07/24 11:16:27;;;;;;;9.67;8.97;;;31.50;59.70;;;;;;5108772;28;20479;-80
2022/07/24 11:19:29;;;;;;;8.53;7.90;;;31.90;64.20;;;;;;5117167;28;20493;-83
2022/07/24 11:22:05;;;;;;;9.18;8.57;;;32.80;59.40;;;;;;5119305;28;20536;-85
2022/07/24 11:24:32;;;;;;;9.27;8.67;;;33.30;56.80;;;;;;5116893;28;20203;-85
2022/07/24 11:27:05;;;;;;;9.30;8.70;;;33.60;54.60;;;;;;5101945;28;20496;-86
2022/07/24 11:29:35;;;;;;;8.50;8.00;;;33.70;55.90;;;;;;5099784;28;20489;-84
2022/07/24 11:32:05;;;;;;;8.80;8.20;;;33.70;55.10;;;;;;5096792;28;20450;-83
2022/07/24 11:34:33;;;;;;;9.40;8.73;;;34.00;57.00;;;;;;5120660;28;20426;-88
2022/07/24 11:37:01;;;;;;;9.13;8.53;;;34.00;55.40;;;;;;5137821;28;20422;-84
2022/07/24 11:39:29;;;;;;;9.17;8.47;;;33.80;55.80;;;;;;5130009;28;20489;-84
2022/07/24 11:41:58;;;;;;;10.07;9.33;;;34.10;56.90;;;;;;5122991;28;20499;-85
2022/07/24 11:44:28;;;;;;;10.17;9.57;;;34.30;56.10;;;;;;5103594;28;20455;-85
2022/07/24 11:46:56;;;;;;;9.47;8.83;;;33.40;53.60;;;;;;5123139;22;20493;-78
2022/07/24 11:49:25;;;;;;;11.13;10.43;;;32.70;55.00;;;;;;5103066;28;20954;-78
2022/07/24 11:51:53;;;;;;;9.90;9.20;;;31.90;56.70;;;;;;5103078;28;20544;-78
2022/07/24 11:54:22;;;;;;;10.37;9.77;;;32.10;58.70;;;;;;5104253;28;20451;-77
2022/07/24 11:56:50;;;;;;;9.27;8.67;;;32.10;58.10;;;;;;5103625;28;20464;-77
2022/07/24 11:59:25;;;;;;;9.83;8.90;;;32.30;58.70;;;;;;5088974;28;20952;-78
2022/07/24 12:01:51;;;;;;;9.50;8.80;;;32.20;58.40;;;;;;5103013;28;20940;-78
2022/07/24 12:04:21;;;;;;;10.07;9.40;;;32.10;56.60;;;;;;5101277;28;20457;-79
2022/07/24 12:06:49;;;;;;;10.20;9.60;;;32.60;58.60;;;;;;5102196;28;20482;-78
2022/07/24 12:09:16;;;;;;;9.13;8.63;;;33.60;57.80;;;;;;5105202;28;20438;-80
2022/07/24 12:11:43;;;;;;;8.80;8.30;;;34.80;57.80;;;;;;5090480;28;20443;-78
2022/07/24 12:14:20;;;;;;;9.87;9.07;;;36.00;52.90;;;;;;5090665;28;20455;-77
2022/07/24 12:16:53;;;;;;;10.23;9.43;;;36.10;50.60;;;;;;5084813;28;20471;-79
2022/07/24 12:19:22;;;;;;;9.30;8.70;;;35.80;49.30;;;;;;5092745;28;20952;-78
2022/07/24 12:21:52;;;;;;;10.37;9.67;;;36.20;50.20;;;;;;5100713;28;20451;-82
2022/07/24 12:24:20;;;;;;;9.43;8.93;;;36.90;50.10;;;;;;5088237;28;20458;-80
2022/07/24 12:26:51;;;;;;;8.73;8.23;;;37.20;47.50;;;;;;5087334;28;20813;-82
2022/07/24 12:29:18;;;;;;;9.67;8.97;;;37.70;46.10;;;;;;5098856;28;20446;-84
2022/07/24 12:31:45;;;;;;;9.03;8.43;;;37.00;45.40;;;;;;5107130;28;20447;-82
2022/07/24 12:34:11;;;;;;;9.10;8.50;;;36.70;45.30;;;;;;5093700;28;20440;-84
2022/07/24 12:36:40;;;;;;;9.23;8.67;;;36.90;46.00;;;;;;5090210;28;20471;-80
2022/07/24 12:39:09;;;;;;;8.47;7.93;;;37.30;45.60;;;;;;5105095;28;20462;-82
2022/07/24 12:41:44;;;;;;;8.40;7.90;;;38.20;46.70;;;;;;5105944;28;20482;-84
2022/07/24 12:44:11;;;;;;;9.27;8.67;;;39.50;43.80;;;;;;5107540;28;20445;-84
2022/07/24 12:46:40;;;;;;;8.93;8.33;;;40.60;43.80;;;;;;5071338;28;20557;-83
2022/07/24 12:49:08;;;;;;;9.17;8.67;;;41.30;39.70;;;;;;5069473;28;20436;-84
2022/07/24 12:51:48;;;;;;;8.97;8.40;;;42.30;40.20;;;;;;5067971;28;20567;-84
2022/07/24 12:54:21;;;;;;;8.60;8.20;;;43.40;37.90;;;;;;5070460;28;20433;-84
2022/07/24 12:56:50;;;;;;;9.40;8.90;;;44.30;36.60;;;;;;5068167;28;20464;-82
2022/07/24 12:59:25;;;;;;;9.40;8.90;;;45.20;34.40;;;;;;5067124;28;20449;-81
2022/07/24 13:01:53;;;;;;;7.87;7.47;;;45.90;33.30;;;;;;5061533;28;20957;-80
2022/07/24 13:04:24;;;;;;;8.23;7.83;;;46.10;30.00;;;;;;5062742;28;20448;-80
2022/07/24 13:06:52;;;;;;;9.00;8.50;;;46.60;31.10;;;;;;5069316;28;20490;-80
2022/07/24 13:09:22;;;;;;;8.57;8.07;;;46.70;29.30;;;;;;5079131;28;20452;-80
2022/07/24 13:11:51;;;;;;;9.97;9.37;;;46.50;29.30;;;;;;5077982;28;20451;-80
2022/07/24 13:14:19;;;;;;;9.20;8.70;;;46.20;29.20;;;;;;5077528;28;20451;-80
2022/07/24 13:16:48;;;;;;;8.53;8.00;;;46.30;29.50;;;;;;5076687;28;20475;-80
2022/07/24 13:19:15;;;;;;;9.20;8.70;;;46.40;29.50;;;;;;5076756;28;20452;-81
2022/07/24 13:21:43;;;;;;;7.87;7.40;;;46.60;28.80;;;;;;5076445;28;20454;-81
2022/07/24 13:24:11;;;;;;;8.23;7.70;;;46.40;28.80;;;;;;5076341;28;20455;-81
2022/07/24 13:26:40;;;;;;;9.70;9.10;;;46.50;28.70;;;;;;5076117;28;20862;-81
2022/07/24 13:29:08;;;;;;;8.37;7.87;;;46.80;28.60;;;;;;5076671;28;20459;-81
2022/07/24 13:31:35;;;;;;;7.80;7.40;;;47.00;26.60;;;;;;5076747;28;20458;-80
2022/07/24 13:34:02;;;;;;;7.90;7.47;;;45.70;26.40;;;;;;5076927;28;20450;-81
2022/07/24 13:36:29;;;;;;;7.47;7.07;;;45.80;28.00;;;;;;5076078;28;20853;-81
2022/07/24 13:38:56;;;;;;;7.63;7.23;;;46.20;28.10;;;;;;5076651;28;20455;-81
2022/07/24 13:41:22;;;;;;;7.60;7.20;;;46.60;26.50;;;;;;5077468;28;20444;-82
2022/07/24 13:43:51;;;;;;;8.20;7.80;;;47.00;26.50;;;;;;5077657;28;20456;-81
2022/07/24 13:46:18;;;;;;;8.30;7.80;;;47.00;26.50;;;;;;5090622;28;20474;-81
2022/07/24 13:48:45;;;;;;;7.70;7.30;;;47.00;26.60;;;;;;5097938;28;20451;-81
2022/07/24 13:51:12;;;;;;;8.93;8.43;;;47.30;27.00;;;;;;5097354;28;20451;-81
2022/07/24 13:53:39;;;;;;;8.80;8.30;;;47.40;26.60;;;;;;5098552;28;20824;-81
2022/07/24 13:56:06;;;;;;;8.20;7.70;;;47.70;26.90;;;;;;5098293;28;20476;-81
2022/07/24 13:58:35;;;;;;;9.80;8.20;;;47.90;25.60;;;;;;5098397;28;21008;-81
2022/07/24 14:01:03;;;;;;;9.07;8.57;;;48.20;25.40;;;;;;5097927;28;20451;-81
2022/07/24 14:03:30;;;;;;;7.97;7.37;;;48.40;26.10;;;;;;5097337;28;20943;-81
2022/07/24 14:05:57;;;;;;;8.93;8.33;;;48.40;24.50;;;;;;5097616;28;20989;-81
2022/07/24 14:08:25;;;;;;;8.10;7.70;;;48.10;24.90;;;;;;5101667;28;20486;-81
2022/07/24 14:10:51;;;;;;;8.13;7.63;;;48.20;24.50;;;;;;5100633;28;20453;-81
2022/07/24 14:13:18;;;;;;;8.43;7.93;;;48.00;24.80;;;;;;5105753;28;20461;-81
2022/07/24 14:15:45;;;;;;;8.67;8.17;;;47.40;25.60;;;;;;5105042;28;20458;-80
2022/07/24 14:18:13;;;;;;;8.60;8.13;;;47.30;25.50;;;;;;5102369;28;20491;-80
2022/07/24 14:20:40;;;;;;;9.00;8.50;;;47.20;26.10;;;;;;5104586;28;20931;-82
2022/07/24 14:23:07;;;;;;;8.50;8.03;;;47.20;25.40;;;;;;5101343;28;20443;-81
2022/07/24 14:25:34;;;;;;;8.93;8.43;;;47.30;25.30;;;;;;5096975;28;20470;-83
2022/07/24 14:28:01;;;;;;;9.00;8.50;;;47.10;25.80;;;;;;5096659;28;20494;-80
2022/07/24 14:30:28;;;;;;;8.87;8.37;;;46.90;26.40;;;;;;5097283;28;20456;-81
2022/07/24 14:32:54;;;;;;;7.57;7.17;;;47.20;25.60;;;;;;5096841;28;20486;-80
2022/07/24 14:35:23;;;;;;;9.20;8.60;;;47.40;25.10;;;;;;5096942;28;20806;-80
2022/07/24 14:37:50;;;;;;;8.90;8.30;;;47.70;25.30;;;;;;5097283;28;20450;-81
2022/07/24 14:40:16;;;;;;;8.20;7.80;;;48.00;25.90;;;;;;5097054;28;20830;-80
2022/07/24 14:42:43;;;;;;;8.60;8.10;;;48.10;24.50;;;;;;5096879;28;20458;-80
2022/07/24 14:45:10;;;;;;;9.17;8.67;;;48.20;24.80;;;;;;5098468;28;20474;-81
2022/07/24 14:47:38;;;;;;;9.77;9.17;;;48.20;25.30;;;;;;5099956;28;20486;-80
2022/07/24 14:50:07;;;;;;;8.90;8.33;;;48.20;24.90;;;;;;5100797;28;20450;-80
2022/07/24 14:52:35;;;;;;;8.20;7.67;;;48.10;24.60;;;;;;5100814;28;20484;-80
2022/07/24 14:55:02;;;;;;;8.17;7.67;;;48.00;24.70;;;;;;5100731;28;20454;-80
2022/07/24 14:57:29;;;;;;;7.90;7.50;;;48.30;25.10;;;;;;5099894;28;20449;-81
2022/07/24 14:59:55;;;;;;;8.40;7.90;;;48.70;23.90;;;;;;5100043;28;20450;-81
2022/07/24 15:02:22;;;;;;;9.13;8.63;;;48.70;23.50;;;;;;5100634;28;20446;-81
2022/07/24 15:04:49;;;;;;;8.93;8.43;;;48.80;24.50;;;;;;5100686;28;20447;-81
2022/07/24 15:07:16;;;;;;;9.40;8.87;;;49.00;23.90;;;;;;5099839;28;20486;-81
2022/07/24 15:09:44;;;;;;;9.20;8.60;;;49.20;24.50;;;;;;5100511;28;20958;-82
2022/07/24 15:12:10;;;;;;;9.60;9.10;;;49.50;24.40;;;;;;5100841;28;20446;-81
2022/07/24 15:14:37;;;;;;;8.50;8.00;;;49.80;23.80;;;;;;5100189;28;20829;-81
2022/07/24 15:17:04;;;;;;;8.30;7.80;;;49.80;22.80;;;;;;5100360;28;20466;-81
2022/07/24 15:19:31;;;;;;;8.47;8.07;;;49.90;23.40;;;;;;5093095;28;20458;-82
2022/07/24 15:21:58;;;;;;;7.80;7.30;;;49.60;22.80;;;;;;5101388;28;20443;-82
2022/07/24 15:24:24;;;;;;;7.80;7.47;;;49.80;23.00;;;;;;5101145;28;20446;-82
2022/07/24 15:26:52;;;;;;;7.80;7.40;;;49.90;23.40;;;;;;5100048;28;20470;-82
2022/07/24 15:29:20;;;;;;;8.20;7.70;;;50.10;22.20;;;;;;5100770;28;20974;-82
2022/07/24 15:31:47;;;;;;;8.50;8.10;;;50.30;23.10;;;;;;5100254;28;20818;-82
2022/07/24 15:34:15;;;;;;;8.23;7.83;;;49.70;21.80;;;;;;5100527;28;20476;-82
2022/07/24 15:36:42;;;;;;;7.97;7.50;;;48.60;22.40;;;;;;5100186;28;20466;-82
2022/07/24 15:39:10;;;;;;;7.33;7.03;;;48.70;22.60;;;;;;5093403;28;20482;-81
2022/07/24 15:41:38;;;;;;;8.70;8.10;;;48.80;22.70;;;;;;5090696;28;20443;-81
2022/07/24 15:44:10;;;;;;;8.10;7.70;;;49.10;23.20;;;;;;5080008;28;20823;-82
2022/07/24 15:46:38;;;;;;;8.07;7.53;;;49.60;23.00;;;;;;5090415;28;20481;-82
2022/07/24 15:49:06;;;;;;;8.27;7.80;;;50.00;23.00;;;;;;5101122;28;20446;-82
2022/07/24 15:51:34;;;;;;;9.67;8.97;;;50.10;22.40;;;;;;5079591;28;20937;-82
2022/07/24 15:54:01;;;;;;;8.50;8.10;;;49.80;22.90;;;;;;5086134;28;20447;-82
2022/07/24 15:56:28;;;;;;;8.80;8.20;;;49.30;22.60;;;;;;5079904;28;20554;-83
2022/07/24 15:58:54;;;;;;;9.20;8.70;;;48.80;22.90;;;;;;5081483;28;20489;-82